Destinations Brussels Airport

Brussels Airport (EBBR / BRU)

Flights to Brussels Airport

Flight number From ETE Dispatch
SPY-003 EHGG Groningen Airport Eelde 01:05

Flights from Brussels Airport

Flight number To ETE Dispatch
SPY-004 EHGG Groningen Airport Eelde
About

Brussels Airport facts

Brussels Airport is located in Brussels at an elevation of 56.1 meters or 184 feet.

Currently, Speedy Airlines serves 2 flights to and from Brussels Airport.

Detailed airport info

Route map

Weather

Current weather

METAR

METAR

Metar data retrieved Sunday, 21 July 2024 at 19:25 UTC

EBBR 211850Z 32007KT 9999 SCT024 21/17 Q1012 NOSIG
Wind Temperature
7 kt 21c